EGPFEGPL

Guest
Details From EGPF - Glasgow
To EGPL - Benbecula
Flight Number -
Tags generated
Created
Modified
Stats Distance 142 nm / 263 km
Max Altitude 18,600 ft / 5,669 m
Waypoints 7
Social Downloads 3
Likes 0
Share VATSIM

Download

Looking for another format? Having issues loading an existing format? Contact us
Advertisement - Login to hide

Notes

Basic altitude profile: - Ascent Rate: 2500ft/min - Ascent Speed: 250kts - Cruise Altitude: 35000ft - Cruise Speed: 420kts - Descent Rate: 1500ft/min - Descent Speed: 250kts Options: - Use NATs: yes - Use PACOTS: yes - Use low airways: yes - Use high airways: no

Route

EGPF GOW N573D BRUCE W958D BEN EGPL

ID Type Via Altitude Latitude Longitude Leg Dist Tot Dist Heading (true) Name
O EGPF APT - 0 ft / 0 m 55.87173˚ -4.43365˚ - 0 nm - Glasgow
GOW VOR - 100 ft / 30 m 55.87050˚ -4.44573˚ 0 nm 0 nm 260° / 260° GLASGOW VOR-DME
CLYDE FIX N573D (AWY-LO) 5,500 ft / 1,676 m 55.96487˚ -4.79247˚ 12 nm 13 nm 296° / 296° -
FYNER FIX N573D (AWY-LO) 9,000 ft / 2,743 m 56.05111˚ -5.11404˚ 11 nm 25 nm 296° / 295° -
BRUCE FIX N573D (AWY-LO) 18,600 ft / 5,669 m 56.23639˚ -5.84111˚ 26 nm 52 nm 295° / 294° -
BEN VOR W958D (AWY-LO) 7,500 ft / 2,286 m 57.47794˚ -7.36530˚ 89 nm 141 nm 327° / 325° BENBECULA VOR-DME
O EGPL APT - 0 ft / 0 m 57.48117˚ -7.36300˚ 0 nm 142 nm 21° / 21° Benbecula

Altitude Profile

Advertisement - Login to hide

EGPF

Details ICAO EGPF (GLA)
Name Glasgow
Region United Kingdom
Timezone Europe/London (UTC+0.0)
Stats Elevation 26 ft / 8 m (AMSL)
Location 55.871728° -4.433648°
Runways 1
Magnetic Variation 2.730° W

METAR

EGPF 181850Z AUTO 31004KT 9999 OVC030 07/05 Q1028

Decode

TAF

TAF TAF EGPF 181702Z 1818/1918 23005KT 9999 SCT012 TEMPO 1818/1821 4000 BR BKN008 BECMG 1821/1824 4000 BR BKN008 PROB40 1900/1906 0600 FG VV/// TEMPO 1906/1912 1400 RADZ BKN003 BECMG 1912/1915 6000 BKN010 BECMG 1915/1918 9999 NSW

Decode

Departure Runways

ID Width Length Bearing (true) Bearing (mag) Surface Threshold Offset Overrun Length
05 151 ft / 46 m 8,721 ft / 2,658 m 46.34° 49.07° Asphalt 0 ft / 0 m 499 ft / 152 m
23 151 ft / 46 m 8,721 ft / 2,658 m 226.37° 229.10° Asphalt 1,004 ft / 306 m 0 ft / 0 m

EGPL

Details ICAO EGPL (BEB)
Name Benbecula
Region United Kingdom
Timezone Europe/London (UTC+0.0)
Stats Elevation 19 ft / 6 m (AMSL)
Location 57.481171° -7.363001°
Runways 2
Magnetic Variation 4.330° W

METAR

EGPL 181750Z 20020KT 1500 -DZ BR OVC002 09/09 Q1022

Decode

TAF

Not found

Destination Runways

ID Width Length Bearing (true) Bearing (mag) Surface Threshold Offset Overrun Length
06 151 ft / 46 m 6,000 ft / 1,829 m 55.40° 59.73° Asphalt 384 ft / 117 m 0 ft / 0 m
17 151 ft / 46 m 4,218 ft / 1,286 m 167.10° 171.43° Asphalt 0 ft / 0 m 0 ft / 0 m
24 151 ft / 46 m 6,000 ft / 1,829 m 235.42° 239.75° Asphalt 0 ft / 0 m 0 ft / 0 m
35 151 ft / 46 m 4,218 ft / 1,286 m 347.10° 351.43° Asphalt 305 ft / 93 m 0 ft / 0 m

Popular Alternatives